Santos Dumont Airport

SBRJ · Rio de Janeiro, Brazil

METAR history SBRJ · Santos Dumont Airport

Below you see METARs of the last few days. Select a year to browse through older METARs, from the year 2007 onwards.

April 15, 2024

Time Code Weather Temp. Visibility Ceiling Wind METAR/SPECI
21:00
V
26 °C 10 km+ - 080° 080° 4 kt METAR SBRJ 160000Z 08004KT 050V150 CAVOK 26/23 Q1016
20:00
V
26 °C 10 km+ - 120° 120° 7 kt METAR SBRJ 152300Z 12007KT 090V150 CAVOK 26/22 Q1015
19:00
V
26 °C 10 km+ - 170° 170° 7 kt METAR SBRJ 152200Z 17007KT CAVOK 26/22 Q1015
18:00
V
25 °C 10 km+ - 180° 180° 10 kt METAR SBRJ 152100Z 18010KT CAVOK 25/22 Q1014
17:00
V
26 °C 10 km+ - 200° 200° 10 kt METAR SBRJ 152000Z 20010KT CAVOK 26/22 Q1014
16:00
V
27 °C 10 km+ - 200° 200° 12 kt METAR SBRJ 151900Z 20012KT 9999 FEW030 SCT080 27/22 Q1014
15:00
V
27 °C 10 km+ - 170° 170° 10 kt METAR SBRJ 151800Z 17010KT 9999 FEW030 27/22 Q1013
14:00
V
26 °C 10 km+ - 160° 160° 12 kt METAR SBRJ 151700Z 16012KT 9999 FEW025 26/22 Q1013
13:00
V
27 °C 10 km+ 10,000 ft 180° 180° 9 kt METAR SBRJ 151600Z 18009KT 9999 FEW025 BKN100 27/22 Q1014
12:00
V
26 °C 10 km+ 10,000 ft 160° 160° 8 kt METAR SBRJ 151500Z 16008KT 9999 FEW020 BKN100 26/22 Q1015
11:00
V
27 °C 10 km+ 10,000 ft 020° 020° 3 kt METAR SBRJ 151400Z 02003KT 290V060 9999 FEW015 BKN100 27/22 Q1015
10:00
V
25 °C 10 km+ 10,000 ft 330° 330° 5 kt METAR SBRJ 151300Z 33005KT 9999 FEW015 BKN100 25/22 Q1016
09:00
V
25 °C 10 km+ 10,000 ft 330° 330° 5 kt METAR SBRJ 151200Z 33005KT 9999 FEW015 BKN100 25/21 Q1016
08:00
V
24 °C 10 km+ 10,000 ft Var Var 1 kt METAR SBRJ 151100Z VRB01KT 9999 FEW015 BKN100 24/21 Q1016
07:00
V
24 °C 10 km+ - 110° 110° 6 kt METAR SBRJ 151000Z 11006KT CAVOK 24/21 Q1016
06:00
V
24 °C 10 km+ - Var Var 1 kt METAR SBRJ 150900Z VRB01KT CAVOK 24/21 Q1015
05:00
V
24 °C 10 km+ - 350° 350° 2 kt METAR SBRJ 150800Z 35002KT CAVOK 24/21 Q1015
04:00
V
24 °C 10 km+ - 330° 330° 3 kt METAR SBRJ 150700Z 33003KT CAVOK 24/21 Q1015
03:00
V
24 °C 10 km+ - 050° 050° 4 kt METAR SBRJ 150600Z 05004KT 010V080 CAVOK 24/20 Q1015
02:00
V
24 °C 10 km+ - 360° 360° 0 kt METAR SBRJ 150500Z 00000KT CAVOK 24/20 Q1015
01:00
V
25 °C 10 km+ - 050° 050° 4 kt METAR SBRJ 150400Z 05004KT 360V080 CAVOK 25/20 Q1015
00:00
V
25 °C 10 km+ - 070° 070° 6 kt METAR SBRJ 150300Z 07006KT 040V120 9999 FEW025 25/21 Q1016

April 14, 2024

Time Code Weather Temp. Visibility Ceiling Wind METAR/SPECI
23:00
V
25 °C 10 km+ - 080° 080° 3 kt METAR SBRJ 150200Z 08003KT 350V140 9999 FEW020 25/21 Q1016
22:00
V
25 °C 10 km+ - 110° 110° 4 kt METAR SBRJ 150100Z 11004KT 9999 FEW022 25/21 Q1016
21:00
V
25 °C 10 km+ - 100° 100° 9 kt METAR SBRJ 150000Z 10009KT 9999 SCT040 25/21 Q1016
20:00
V
25 °C 10 km+ 4,000 ft 090° 090° 9 kt METAR SBRJ 142300Z 09009KT 9999 BKN040 25/22 Q1015
19:00
V
25 °C 10 km+ - 090° 090° 8 kt METAR SBRJ 142200Z 09008KT 9999 FEW018 SCT030 25/22 Q1015
18:00
V
25 °C 10 km+ - 160° 160° 4 kt METAR SBRJ 142100Z 16004KT 9999 SCT030 25/23 Q1014
17:00
V
25 °C 10 km+ - 180° 180° 9 kt METAR SBRJ 142000Z 18009KT 9999 SCT030 25/23 Q1014
16:00
V
26 °C 10 km+ - 200° 200° 9 kt METAR SBRJ 141900Z 20009KT 9999 FEW025 26/23 Q1013
15:00
V
25 °C 10 km+ - 170° 170° 9 kt METAR SBRJ 141800Z 17009KT 9999 FEW018 SCT100 25/23 Q1013
14:00
V
26 °C 10 km+ - 190° 190° 10 kt METAR SBRJ 141700Z 19010KT 9999 FEW018 SCT100 26/23 Q1014
13:00
V
26 °C 10 km+ - 170° 170° 11 kt METAR SBRJ 141600Z 17011KT 9999 FEW025 26/23 Q1014
12:00
V
26 °C 10 km+ - 160° 160° 8 kt METAR SBRJ 141500Z 16008KT 9999 FEW025 26/22 Q1015
11:00
V
26 °C 10 km+ - 160° 160° 9 kt METAR SBRJ 141400Z 16009KT 9999 FEW020 26/21 Q1016
10:00
V
27 °C 10 km+ - 110° 110° 2 kt METAR SBRJ 141300Z 11002KT CAVOK 27/22 Q1016
09:00
V
25 °C 10 km+ - Var Var 2 kt METAR SBRJ 141200Z VRB02KT CAVOK 25/22 Q1016
08:00
V
25 °C 10 km+ - 050° 050° 3 kt METAR SBRJ 141100Z 05003KT CAVOK 25/21 Q1016
07:00
V
24 °C 10 km+ - 040° 040° 5 kt METAR SBRJ 141000Z 04005KT CAVOK 24/22 Q1015
06:00
V
23 °C 10 km+ - Var Var 2 kt METAR SBRJ 140900Z VRB02KT CAVOK 23/21 Q1014
05:00
V
24 °C 10 km+ - 050° 050° 5 kt METAR SBRJ 140800Z 05005KT CAVOK 24/22 Q1014
04:00
V
24 °C 10 km+ - 080° 080° 6 kt METAR SBRJ 140700Z 08006KT CAVOK 24/22 Q1014
03:00
V
24 °C 10 km+ - 350° 350° 5 kt METAR SBRJ 140600Z 35005KT CAVOK 24/22 Q1014
02:00
V
25 °C 10 km+ - 340° 340° 3 kt METAR SBRJ 140500Z 34003KT CAVOK 25/22 Q1014
01:00
V
25 °C 10 km+ - 080° 080° 6 kt METAR SBRJ 140400Z 08006KT 9999 FEW020 25/22 Q1015
00:00
V
25 °C 10 km+ - 090° 090° 2 kt METAR SBRJ 140300Z 09002KT CAVOK 25/22 Q1015

April 13, 2024

Time Code Weather Temp. Visibility Ceiling Wind METAR/SPECI
23:00
V
24 °C 10 km+ - 190° 190° 4 kt METAR SBRJ 140200Z 19004KT CAVOK 24/21 Q1015
22:00
V
25 °C 10 km+ - 180° 180° 4 kt METAR SBRJ 140100Z 18004KT CAVOK 25/21 Q1015
21:00
V
26 °C 10 km+ - 160° 160° 5 kt METAR SBRJ 140000Z 16005KT 130V200 CAVOK 26/21 Q1015
20:00
V
25 °C 10 km+ - 170° 170° 6 kt METAR SBRJ 132300Z 17006KT CAVOK 25/22 Q1015
19:00
V
26 °C 10 km+ - 190° 190° 7 kt METAR SBRJ 132200Z 19007KT CAVOK 26/22 Q1014
18:00
V
26 °C 10 km+ - 190° 190° 9 kt METAR SBRJ 132100Z 19009KT 9999 FEW030 26/22 Q1014
17:00
V
27 °C 10 km+ - 170° 170° 8 kt METAR SBRJ 132000Z 17008KT 9999 FEW025 27/22 Q1014
16:00
V
27 °C 10 km+ - 170° 170° 12 kt METAR SBRJ 131900Z 17012KT 9999 FEW025 27/22 Q1014
15:00
V
27 °C 10 km+ - 170° 170° 13 kt METAR SBRJ 131800Z 17013KT 9999 FEW025 27/23 Q1014
14:00
V
27 °C 10 km+ - 160° 160° 13 kt METAR SBRJ 131700Z 16013KT 9999 FEW025 27/23 Q1015
13:00
V
27 °C 10 km+ - 160° 160° 10 kt METAR SBRJ 131600Z 16010KT 9999 FEW025 27/23 Q1016
12:00
V
27 °C 10 km+ - 120° 120° 6 kt METAR SBRJ 131500Z 12006KT 9999 FEW025 27/23 Q1017
11:00
V
28 °C 10 km+ - 330° 330° 6 kt METAR SBRJ 131400Z 33006KT 9999 SCT025 28/23 Q1017
10:00
V
27 °C 10 km+ - 320° 320° 5 kt METAR SBRJ 131300Z 32005KT 9999 FEW025 27/23 Q1018
09:00
V
26 °C 10 km+ - 330° 330° 3 kt METAR SBRJ 131200Z 33003KT 9999 FEW020 26/23 Q1018
08:00
V
26 °C 10 km+ - 040° 040° 1 kt METAR SBRJ 131100Z 04001KT 9999 FEW020 26/22 Q1018
07:00
V
24 °C 10 km+ - 180° 180° 2 kt METAR SBRJ 131000Z 18002KT 9999 FEW015 24/22 Q1017
06:00
V
23 °C 10 km+ - 360° 360° 0 kt METAR SBRJ 130900Z 00000KT 9999 FEW015 23/22 Q1016
05:00
V
24 °C 10 km+ - 360° 360° 0 kt METAR SBRJ 130800Z 00000KT 9999 FEW017 24/22 Q1016
04:00
V
24 °C 10 km+ - 040° 040° 5 kt METAR SBRJ 130700Z 04005KT 9999 FEW017 24/22 Q1016
03:00
V
24 °C 10 km+ - 120° 120° 2 kt METAR SBRJ 130600Z 12002KT 9999 FEW020 24/22 Q1016
Report a change